sensor_id;sensor_type;location;lat;lon;timestamp;P1;durP1;ratioP1;P2;durP2;ratioP2
60026;SDS011;45891;53.006;6.512;2022-10-19T00:00:59;14.52;;;2.65;;
60026;SDS011;45891;53.006;6.512;2022-10-19T00:03:34;11.98;;;2.20;;
60026;SDS011;45891;53.006;6.512;2022-10-19T00:08:38;11.13;;;2.10;;
60026;SDS011;45891;53.006;6.512;2022-10-19T00:11:04;13.45;;;2.22;;
60026;SDS011;45891;53.006;6.512;2022-10-19T00:13:30;10.27;;;2.20;;
60026;SDS011;45891;53.006;6.512;2022-10-19T00:15:57;13.05;;;1.90;;
60026;SDS011;45891;53.006;6.512;2022-10-19T00:18:23;11.98;;;1.90;;
60026;SDS011;45891;53.006;6.512;2022-10-19T00:20:49;10.98;;;1.85;;
60026;SDS011;45891;53.006;6.512;2022-10-19T00:23:15;15.45;;;2.20;;
60026;SDS011;45891;53.006;6.512;2022-10-19T00:25:41;11.73;;;1.90;;
60026;SDS011;45891;53.006;6.512;2022-10-19T00:28:07;9.60;;;2.00;;
60026;SDS011;45891;53.006;6.512;2022-10-19T00:30:37;9.55;;;1.90;;
60026;SDS011;45891;53.006;6.512;2022-10-19T00:33:03;14.30;;;2.55;;
60026;SDS011;45891;53.006;6.512;2022-10-19T00:35:29;10.98;;;2.25;;
60026;SDS011;45891;53.006;6.512;2022-10-19T00:37:55;12.90;;;2.28;;
60026;SDS011;45891;53.006;6.512;2022-10-19T00:40:21;11.77;;;2.60;;
60026;SDS011;45891;53.006;6.512;2022-10-19T00:42:52;11.20;;;2.35;;
60026;SDS011;45891;53.006;6.512;2022-10-19T00:45:20;13.02;;;2.30;;
60026;SDS011;45891;53.006;6.512;2022-10-19T00:47:46;15.00;;;2.30;;
60026;SDS011;45891;53.006;6.512;2022-10-19T00:50:12;14.50;;;2.00;;
60026;SDS011;45891;53.006;6.512;2022-10-19T00:52:40;13.10;;;2.42;;
60026;SDS011;45891;53.006;6.512;2022-10-19T00:55:06;13.82;;;2.40;;
60026;SDS011;45891;53.006;6.512;2022-10-19T00:57:33;11.77;;;2.40;;
60026;SDS011;45891;53.006;6.512;2022-10-19T01:00:00;15.32;;;2.55;;
60026;SDS011;45891;53.006;6.512;2022-10-19T01:02:30;10.85;;;2.72;;
60026;SDS011;45891;53.006;6.512;2022-10-19T01:04:56;9.32;;;2.13;;
60026;SDS011;45891;53.006;6.512;2022-10-19T01:07:23;15.27;;;2.42;;
60026;SDS011;45891;53.006;6.512;2022-10-19T01:09:51;11.02;;;2.25;;
60026;SDS011;45891;53.006;6.512;2022-10-19T01:26:45;11.18;;;2.35;;
60026;SDS011;45891;53.006;6.512;2022-10-19T01:32:04;12.25;;;2.72;;
60026;SDS011;45891;53.006;6.512;2022-10-19T01:42:43;13.70;;;2.55;;
60026;SDS011;45891;53.006;6.512;2022-10-19T01:45:15;11.02;;;2.40;;
60026;SDS011;45891;53.006;6.512;2022-10-19T01:48:01;10.60;;;2.22;;
60026;SDS011;45891;53.006;6.512;2022-10-19T01:53:04;13.77;;;2.38;;
60026;SDS011;45891;53.006;6.512;2022-10-19T01:55:34;11.95;;;2.75;;
60026;SDS011;45891;53.006;6.512;2022-10-19T01:58:05;13.65;;;2.33;;
60026;SDS011;45891;53.006;6.512;2022-10-19T02:00:34;12.70;;;2.17;;
60026;SDS011;45891;53.006;6.512;2022-10-19T02:03:02;15.93;;;2.67;;
60026;SDS011;45891;53.006;6.512;2022-10-19T02:05:31;12.93;;;2.50;;
60026;SDS011;45891;53.006;6.512;2022-10-19T02:07:59;14.38;;;2.38;;
60026;SDS011;45891;53.006;6.512;2022-10-19T02:10:30;10.00;;;2.08;;
60026;SDS011;45891;53.006;6.512;2022-10-19T02:12:58;16.25;;;2.50;;
60026;SDS011;45891;53.006;6.512;2022-10-19T02:15:27;13.90;;;2.50;;
60026;SDS011;45891;53.006;6.512;2022-10-19T02:17:55;12.00;;;2.58;;
60026;SDS011;45891;53.006;6.512;2022-10-19T02:20:24;10.90;;;2.22;;
60026;SDS011;45891;53.006;6.512;2022-10-19T02:22:52;14.23;;;2.53;;
60026;SDS011;45891;53.006;6.512;2022-10-19T02:25:19;12.88;;;2.10;;
60026;SDS011;45891;53.006;6.512;2022-10-19T02:27:46;12.38;;;2.30;;
60026;SDS011;45891;53.006;6.512;2022-10-19T02:30:13;12.77;;;2.20;;
60026;SDS011;45891;53.006;6.512;2022-10-19T02:32:42;13.10;;;2.10;;
60026;SDS011;45891;53.006;6.512;2022-10-19T02:35:09;12.48;;;2.42;;
60026;SDS011;45891;53.006;6.512;2022-10-19T02:37:37;11.40;;;2.20;;
60026;SDS011;45891;53.006;6.512;2022-10-19T02:40:04;12.13;;;2.40;;
60026;SDS011;45891;53.006;6.512;2022-10-19T02:42:32;13.52;;;2.60;;
60026;SDS011;45891;53.006;6.512;2022-10-19T02:45:16;10.27;;;2.00;;
60026;SDS011;45891;53.006;6.512;2022-10-19T02:47:59;15.00;;;2.03;;
60026;SDS011;45891;53.006;6.512;2022-10-19T02:50:35;9.82;;;1.92;;
60026;SDS011;45891;53.006;6.512;2022-10-19T02:53:02;11.07;;;2.25;;
60026;SDS011;45891;53.006;6.512;2022-10-19T02:55:29;16.90;;;2.38;;
60026;SDS011;45891;53.006;6.512;2022-10-19T02:57:55;9.05;;;2.22;;
60026;SDS011;45891;53.006;6.512;2022-10-19T03:00:21;8.93;;;2.13;;
60026;SDS011;45891;53.006;6.512;2022-10-19T03:02:48;10.75;;;2.30;;
60026;SDS011;45891;53.006;6.512;2022-10-19T03:05:14;13.82;;;2.13;;
60026;SDS011;45891;53.006;6.512;2022-10-19T03:07:40;9.63;;;2.00;;
60026;SDS011;45891;53.006;6.512;2022-10-19T03:10:07;13.70;;;2.20;;
60026;SDS011;45891;53.006;6.512;2022-10-19T03:12:34;13.02;;;1.83;;
60026;SDS011;45891;53.006;6.512;2022-10-19T03:15:00;9.48;;;1.77;;
60026;SDS011;45891;53.006;6.512;2022-10-19T03:17:26;10.88;;;2.15;;
60026;SDS011;45891;53.006;6.512;2022-10-19T03:19:52;14.93;;;2.40;;
60026;SDS011;45891;53.006;6.512;2022-10-19T03:22:18;8.50;;;2.13;;
60026;SDS011;45891;53.006;6.512;2022-10-19T03:24:44;12.50;;;2.50;;
60026;SDS011;45891;53.006;6.512;2022-10-19T03:27:11;11.50;;;2.10;;
60026;SDS011;45891;53.006;6.512;2022-10-19T03:29:37;13.35;;;2.35;;
60026;SDS011;45891;53.006;6.512;2022-10-19T03:32:03;10.52;;;2.13;;
60026;SDS011;45891;53.006;6.512;2022-10-19T03:34:29;14.40;;;2.25;;
60026;SDS011;45891;53.006;6.512;2022-10-19T03:36:55;13.30;;;2.58;;
60026;SDS011;45891;53.006;6.512;2022-10-19T03:39:23;12.02;;;2.72;;
60026;SDS011;45891;53.006;6.512;2022-10-19T03:41:50;13.18;;;2.55;;
60026;SDS011;45891;53.006;6.512;2022-10-19T03:44:16;13.00;;;2.53;;
60026;SDS011;45891;53.006;6.512;2022-10-19T03:46:42;12.05;;;2.20;;
60026;SDS011;45891;53.006;6.512;2022-10-19T03:49:08;14.70;;;2.40;;
60026;SDS011;45891;53.006;6.512;2022-10-19T03:51:36;12.98;;;2.35;;
60026;SDS011;45891;53.006;6.512;2022-10-19T03:54:03;13.73;;;2.10;;
60026;SDS011;45891;53.006;6.512;2022-10-19T03:56:32;13.10;;;2.38;;
60026;SDS011;45891;53.006;6.512;2022-10-19T03:59:00;11.23;;;2.10;;
60026;SDS011;45891;53.006;6.512;2022-10-19T04:01:31;13.50;;;2.05;;
60026;SDS011;45891;53.006;6.512;2022-10-19T04:04:02;11.20;;;1.95;;
60026;SDS011;45891;53.006;6.512;2022-10-19T04:06:34;10.75;;;2.08;;
60026;SDS011;45891;53.006;6.512;2022-10-19T04:09:02;13.68;;;2.13;;
60026;SDS011;45891;53.006;6.512;2022-10-19T04:11:30;16.65;;;2.10;;
60026;SDS011;45891;53.006;6.512;2022-10-19T04:13:58;16.30;;;2.08;;
60026;SDS011;45891;53.006;6.512;2022-10-19T04:16:25;12.23;;;1.90;;
60026;SDS011;45891;53.006;6.512;2022-10-19T04:18:53;9.27;;;1.63;;
60026;SDS011;45891;53.006;6.512;2022-10-19T04:23:51;16.42;;;2.58;;
60026;SDS011;45891;53.006;6.512;2022-10-19T04:26:19;13.10;;;2.30;;
60026;SDS011;45891;53.006;6.512;2022-10-19T04:28:45;13.18;;;1.92;;
60026;SDS011;45891;53.006;6.512;2022-10-19T04:31:12;10.95;;;2.20;;
60026;SDS011;45891;53.006;6.512;2022-10-19T04:33:38;13.60;;;2.40;;
60026;SDS011;45891;53.006;6.512;2022-10-19T04:36:06;13.00;;;3.28;;
60026;SDS011;45891;53.006;6.512;2022-10-19T04:38:34;11.25;;;3.10;;
60026;SDS011;45891;53.006;6.512;2022-10-19T04:41:05;13.15;;;2.78;;
60026;SDS011;45891;53.006;6.512;2022-10-19T04:43:36;10.80;;;2.88;;
60026;SDS011;45891;53.006;6.512;2022-10-19T04:46:03;13.07;;;3.10;;
60026;SDS011;45891;53.006;6.512;2022-10-19T04:48:35;9.43;;;3.05;;
60026;SDS011;45891;53.006;6.512;2022-10-19T04:51:03;15.40;;;2.97;;
60026;SDS011;45891;53.006;6.512;2022-10-19T04:53:29;11.70;;;2.90;;
60026;SDS011;45891;53.006;6.512;2022-10-19T04:55:56;18.25;;;2.90;;
60026;SDS011;45891;53.006;6.512;2022-10-19T04:58:22;10.50;;;2.73;;
60026;SDS011;45891;53.006;6.512;2022-10-19T05:00:49;15.55;;;2.85;;
60026;SDS011;45891;53.006;6.512;2022-10-19T05:03:16;15.33;;;2.83;;
60026;SDS011;45891;53.006;6.512;2022-10-19T05:05:42;14.55;;;2.63;;
60026;SDS011;45891;53.006;6.512;2022-10-19T05:08:09;12.65;;;2.47;;
60026;SDS011;45891;53.006;6.512;2022-10-19T05:10:36;11.82;;;2.50;;
60026;SDS011;45891;53.006;6.512;2022-10-19T05:13:02;14.13;;;2.60;;
60026;SDS011;45891;53.006;6.512;2022-10-19T05:15:28;12.10;;;2.60;;
60026;SDS011;45891;53.006;6.512;2022-10-19T05:17:55;14.50;;;2.40;;
60026;SDS011;45891;53.006;6.512;2022-10-19T05:20:21;11.70;;;2.60;;
60026;SDS011;45891;53.006;6.512;2022-10-19T05:22:49;11.40;;;2.40;;
60026;SDS011;45891;53.006;6.512;2022-10-19T05:25:15;13.65;;;2.67;;
60026;SDS011;45891;53.006;6.512;2022-10-19T05:27:42;11.43;;;2.20;;
60026;SDS011;45891;53.006;6.512;2022-10-19T05:30:08;13.60;;;2.28;;
60026;SDS011;45891;53.006;6.512;2022-10-19T05:32:34;16.80;;;2.33;;
60026;SDS011;45891;53.006;6.512;2022-10-19T05:35:00;15.35;;;2.38;;
60026;SDS011;45891;53.006;6.512;2022-10-19T05:37:26;12.00;;;1.95;;
60026;SDS011;45891;53.006;6.512;2022-10-19T05:39:53;12.82;;;1.80;;
60026;SDS011;45891;53.006;6.512;2022-10-19T05:42:19;13.38;;;1.95;;
60026;SDS011;45891;53.006;6.512;2022-10-19T05:44:46;15.30;;;2.40;;
60026;SDS011;45891;53.006;6.512;2022-10-19T05:47:12;14.10;;;1.90;;
60026;SDS011;45891;53.006;6.512;2022-10-19T05:49:38;14.75;;;2.08;;
60026;SDS011;45891;53.006;6.512;2022-10-19T05:52:04;15.30;;;2.38;;
60026;SDS011;45891;53.006;6.512;2022-10-19T05:54:30;16.23;;;2.40;;
60026;SDS011;45891;53.006;6.512;2022-10-19T05:56:56;12.48;;;2.05;;
60026;SDS011;45891;53.006;6.512;2022-10-19T05:59:22;15.73;;;2.03;;
60026;SDS011;45891;53.006;6.512;2022-10-19T06:01:48;15.15;;;2.00;;
60026;SDS011;45891;53.006;6.512;2022-10-19T06:04:15;17.83;;;2.22;;
60026;SDS011;45891;53.006;6.512;2022-10-19T06:06:41;14.10;;;1.92;;
60026;SDS011;45891;53.006;6.512;2022-10-19T06:09:07;12.65;;;1.80;;
60026;SDS011;45891;53.006;6.512;2022-10-19T06:11:36;18.42;;;2.00;;
60026;SDS011;45891;53.006;6.512;2022-10-19T06:14:06;15.85;;;2.00;;
60026;SDS011;45891;53.006;6.512;2022-10-19T06:16:35;16.13;;;2.90;;
60026;SDS011;45891;53.006;6.512;2022-10-19T06:19:02;15.10;;;2.10;;
60026;SDS011;45891;53.006;6.512;2022-10-19T06:21:29;18.02;;;2.53;;
60026;SDS011;45891;53.006;6.512;2022-10-19T06:23:57;17.13;;;2.20;;
60026;SDS011;45891;53.006;6.512;2022-10-19T06:26:26;17.73;;;2.40;;
60026;SDS011;45891;53.006;6.512;2022-10-19T06:28:54;17.88;;;1.95;;
60026;SDS011;45891;53.006;6.512;2022-10-19T06:31:23;16.92;;;2.38;;
60026;SDS011;45891;53.006;6.512;2022-10-19T06:33:49;14.20;;;2.15;;
60026;SDS011;45891;53.006;6.512;2022-10-19T06:36:17;16.73;;;2.40;;
60026;SDS011;45891;53.006;6.512;2022-10-19T06:38:45;16.52;;;2.20;;
60026;SDS011;45891;53.006;6.512;2022-10-19T06:41:12;13.27;;;2.00;;
60026;SDS011;45891;53.006;6.512;2022-10-19T06:43:38;15.82;;;2.00;;
60026;SDS011;45891;53.006;6.512;2022-10-19T06:46:05;11.73;;;2.03;;
60026;SDS011;45891;53.006;6.512;2022-10-19T06:48:33;18.83;;;2.40;;
60026;SDS011;45891;53.006;6.512;2022-10-19T06:51:00;12.85;;;2.00;;
60026;SDS011;45891;53.006;6.512;2022-10-19T06:53:28;18.52;;;2.20;;
60026;SDS011;45891;53.006;6.512;2022-10-19T06:55:57;13.98;;;2.10;;
60026;SDS011;45891;53.006;6.512;2022-10-19T06:58:24;15.17;;;2.10;;
60026;SDS011;45891;53.006;6.512;2022-10-19T07:00:54;14.73;;;2.05;;
60026;SDS011;45891;53.006;6.512;2022-10-19T07:03:22;16.73;;;2.10;;
60026;SDS011;45891;53.006;6.512;2022-10-19T07:05:52;13.63;;;1.80;;
60026;SDS011;45891;53.006;6.512;2022-10-19T07:08:19;14.05;;;3.25;;
60026;SDS011;45891;53.006;6.512;2022-10-19T07:10:53;16.35;;;2.45;;
60026;SDS011;45891;53.006;6.512;2022-10-19T07:13:21;13.77;;;1.92;;
60026;SDS011;45891;53.006;6.512;2022-10-19T07:15:48;18.60;;;2.20;;
60026;SDS011;45891;53.006;6.512;2022-10-19T07:18:14;18.02;;;2.22;;
60026;SDS011;45891;53.006;6.512;2022-10-19T07:20:40;18.10;;;2.58;;
60026;SDS011;45891;53.006;6.512;2022-10-19T07:23:07;15.13;;;2.40;;
60026;SDS011;45891;53.006;6.512;2022-10-19T07:25:33;13.27;;;2.15;;
60026;SDS011;45891;53.006;6.512;2022-10-19T07:28:00;16.55;;;2.10;;
60026;SDS011;45891;53.006;6.512;2022-10-19T07:30:27;14.80;;;2.28;;
60026;SDS011;45891;53.006;6.512;2022-10-19T07:32:53;16.98;;;2.20;;
60026;SDS011;45891;53.006;6.512;2022-10-19T07:35:19;16.48;;;2.33;;
60026;SDS011;45891;53.006;6.512;2022-10-19T07:37:45;16.75;;;2.08;;
60026;SDS011;45891;53.006;6.512;2022-10-19T07:40:11;14.95;;;1.92;;
60026;SDS011;45891;53.006;6.512;2022-10-19T07:42:38;16.30;;;2.30;;
60026;SDS011;45891;53.006;6.512;2022-10-19T07:45:04;14.43;;;2.30;;
60026;SDS011;45891;53.006;6.512;2022-10-19T07:47:30;13.50;;;2.00;;
60026;SDS011;45891;53.006;6.512;2022-10-19T07:49:58;13.00;;;1.80;;
60026;SDS011;45891;53.006;6.512;2022-10-19T07:52:24;15.32;;;1.98;;
60026;SDS011;45891;53.006;6.512;2022-10-19T07:54:50;17.33;;;2.30;;
60026;SDS011;45891;53.006;6.512;2022-10-19T07:57:17;13.10;;;1.95;;
60026;SDS011;45891;53.006;6.512;2022-10-19T07:59:43;15.38;;;1.80;;
60026;SDS011;45891;53.006;6.512;2022-10-19T08:02:15;15.30;;;1.83;;
60026;SDS011;45891;53.006;6.512;2022-10-19T08:04:42;12.93;;;1.70;;
60026;SDS011;45891;53.006;6.512;2022-10-19T08:07:09;15.65;;;1.88;;
60026;SDS011;45891;53.006;6.512;2022-10-19T08:09:35;12.52;;;1.83;;
60026;SDS011;45891;53.006;6.512;2022-10-19T08:12:02;13.45;;;1.92;;
60026;SDS011;45891;53.006;6.512;2022-10-19T08:14:29;14.27;;;2.10;;
60026;SDS011;45891;53.006;6.512;2022-10-19T08:16:55;17.58;;;2.17;;
60026;SDS011;45891;53.006;6.512;2022-10-19T08:19:21;13.93;;;1.95;;
60026;SDS011;45891;53.006;6.512;2022-10-19T08:21:48;11.23;;;1.50;;
60026;SDS011;45891;53.006;6.512;2022-10-19T08:24:17;13.48;;;1.80;;
60026;SDS011;45891;53.006;6.512;2022-10-19T08:26:44;13.80;;;1.70;;
60026;SDS011;45891;53.006;6.512;2022-10-19T08:29:17;10.82;;;1.77;;
60026;SDS011;45891;53.006;6.512;2022-10-19T08:31:45;11.70;;;1.70;;
60026;SDS011;45891;53.006;6.512;2022-10-19T08:34:12;12.95;;;1.80;;
60026;SDS011;45891;53.006;6.512;2022-10-19T08:36:39;13.25;;;1.50;;
60026;SDS011;45891;53.006;6.512;2022-10-19T08:39:06;12.55;;;1.80;;
60026;SDS011;45891;53.006;6.512;2022-10-19T08:44:52;11.60;;;1.60;;
60026;SDS011;45891;53.006;6.512;2022-10-19T08:49:51;12.40;;;1.60;;
60026;SDS011;45891;53.006;6.512;2022-10-19T08:52:19;11.73;;;1.60;;
60026;SDS011;45891;53.006;6.512;2022-10-19T08:54:50;16.25;;;1.85;;
60026;SDS011;45891;53.006;6.512;2022-10-19T09:02:42;13.43;;;1.90;;
60026;SDS011;45891;53.006;6.512;2022-10-19T09:05:39;11.25;;;1.67;;
60026;SDS011;45891;53.006;6.512;2022-10-19T09:08:08;16.45;;;1.77;;
60026;SDS011;45891;53.006;6.512;2022-10-19T09:10:36;9.75;;;1.52;;
60026;SDS011;45891;53.006;6.512;2022-10-19T09:15:50;11.45;;;1.63;;
60026;SDS011;45891;53.006;6.512;2022-10-19T09:18:26;17.05;;;2.08;;
60026;SDS011;45891;53.006;6.512;2022-10-19T09:23:38;14.00;;;1.75;;
60026;SDS011;45891;53.006;6.512;2022-10-19T09:26:24;11.27;;;1.75;;
60026;SDS011;45891;53.006;6.512;2022-10-19T09:28:54;12.60;;;1.77;;
60026;SDS011;45891;53.006;6.512;2022-10-19T09:34:04;9.75;;;1.40;;
60026;SDS011;45891;53.006;6.512;2022-10-19T09:36:37;15.37;;;1.93;;
60026;SDS011;45891;53.006;6.512;2022-10-19T09:39:09;12.93;;;1.58;;
60026;SDS011;45891;53.006;6.512;2022-10-19T09:41:43;10.23;;;1.70;;
60026;SDS011;45891;53.006;6.512;2022-10-19T09:44:18;11.45;;;1.60;;
60026;SDS011;45891;53.006;6.512;2022-10-19T09:46:49;12.43;;;1.83;;
60026;SDS011;45891;53.006;6.512;2022-10-19T09:52:20;15.63;;;1.75;;
60026;SDS011;45891;53.006;6.512;2022-10-19T09:54:58;11.30;;;1.63;;
60026;SDS011;45891;53.006;6.512;2022-10-19T09:57:42;14.75;;;1.77;;
60026;SDS011;45891;53.006;6.512;2022-10-19T10:00:19;12.20;;;1.60;;
60026;SDS011;45891;53.006;6.512;2022-10-19T10:02:51;12.75;;;1.73;;
60026;SDS011;45891;53.006;6.512;2022-10-19T10:05:19;13.50;;;2.05;;
60026;SDS011;45891;53.006;6.512;2022-10-19T10:07:58;15.02;;;1.95;;
60026;SDS011;45891;53.006;6.512;2022-10-19T10:10:46;11.80;;;1.65;;
60026;SDS011;45891;53.006;6.512;2022-10-19T10:13:15;12.50;;;1.67;;
60026;SDS011;45891;53.006;6.512;2022-10-19T10:15:46;11.43;;;1.58;;
60026;SDS011;45891;53.006;6.512;2022-10-19T10:18:14;12.85;;;1.85;;
60026;SDS011;45891;53.006;6.512;2022-10-19T10:20:56;11.88;;;1.70;;
60026;SDS011;45891;53.006;6.512;2022-10-19T10:23:30;13.10;;;1.98;;
60026;SDS011;45891;53.006;6.512;2022-10-19T10:26:00;11.07;;;1.80;;
60026;SDS011;45891;53.006;6.512;2022-10-19T10:28:29;13.63;;;2.00;;
60026;SDS011;45891;53.006;6.512;2022-10-19T10:31:00;11.82;;;1.40;;
60026;SDS011;45891;53.006;6.512;2022-10-19T10:33:30;12.40;;;1.70;;
60026;SDS011;45891;53.006;6.512;2022-10-19T10:36:00;14.82;;;1.90;;
60026;SDS011;45891;53.006;6.512;2022-10-19T10:38:37;10.35;;;1.63;;
60026;SDS011;45891;53.006;6.512;2022-10-19T10:41:10;10.10;;;1.70;;
60026;SDS011;45891;53.006;6.512;2022-10-19T10:43:50;13.80;;;1.80;;
60026;SDS011;45891;53.006;6.512;2022-10-19T10:46:23;12.13;;;1.83;;
60026;SDS011;45891;53.006;6.512;2022-10-19T10:48:54;8.93;;;1.33;;
60026;SDS011;45891;53.006;6.512;2022-10-19T10:51:23;10.77;;;1.77;;
60026;SDS011;45891;53.006;6.512;2022-10-19T10:54:20;14.68;;;1.80;;
60026;SDS011;45891;53.006;6.512;2022-10-19T10:56:56;9.93;;;1.83;;
60026;SDS011;45891;53.006;6.512;2022-10-19T10:59:48;11.13;;;1.63;;
60026;SDS011;45891;53.006;6.512;2022-10-19T11:02:35;12.27;;;1.60;;
60026;SDS011;45891;53.006;6.512;2022-10-19T11:07:52;9.13;;;1.70;;
60026;SDS011;45891;53.006;6.512;2022-10-19T11:10:30;9.35;;;1.58;;
60026;SDS011;45891;53.006;6.512;2022-10-19T11:18:20;8.45;;;1.27;;
60026;SDS011;45891;53.006;6.512;2022-10-19T11:21:01;11.35;;;1.67;;
60026;SDS011;45891;53.006;6.512;2022-10-19T11:31:54;11.00;;;1.67;;
60026;SDS011;45891;53.006;6.512;2022-10-19T11:37:30;13.52;;;1.73;;
60026;SDS011;45891;53.006;6.512;2022-10-19T11:40:18;10.63;;;1.48;;
60026;SDS011;45891;53.006;6.512;2022-10-19T11:48:29;9.52;;;1.65;;
60026;SDS011;45891;53.006;6.512;2022-10-19T11:57:17;8.57;;;1.60;;
60026;SDS011;45891;53.006;6.512;2022-10-19T12:00:03;15.45;;;2.00;;
60026;SDS011;45891;53.006;6.512;2022-10-19T12:05:24;16.58;;;2.03;;
60026;SDS011;45891;53.006;6.512;2022-10-19T12:13:39;11.23;;;1.60;;
60026;SDS011;45891;53.006;6.512;2022-10-19T12:21:03;12.32;;;1.88;;
60026;SDS011;45891;53.006;6.512;2022-10-19T12:23:55;11.48;;;1.60;;
60026;SDS011;45891;53.006;6.512;2022-10-19T12:26:24;10.73;;;1.60;;
60026;SDS011;45891;53.006;6.512;2022-10-19T12:29:01;9.60;;;1.23;;
60026;SDS011;45891;53.006;6.512;2022-10-19T12:31:30;9.75;;;1.67;;
60026;SDS011;45891;53.006;6.512;2022-10-19T12:36:44;11.10;;;1.52;;
60026;SDS011;45891;53.006;6.512;2022-10-19T12:42:27;11.35;;;1.88;;
60026;SDS011;45891;53.006;6.512;2022-10-19T12:56:24;10.52;;;1.67;;
60026;SDS011;45891;53.006;6.512;2022-10-19T13:01:19;10.18;;;1.52;;
60026;SDS011;45891;53.006;6.512;2022-10-19T13:06:50;10.20;;;1.40;;
60026;SDS011;45891;53.006;6.512;2022-10-19T13:09:29;10.30;;;1.50;;
60026;SDS011;45891;53.006;6.512;2022-10-19T13:14:44;11.18;;;1.80;;
60026;SDS011;45891;53.006;6.512;2022-10-19T13:27:50;7.85;;;1.30;;
60026;SDS011;45891;53.006;6.512;2022-10-19T13:41:14;10.20;;;1.60;;
60026;SDS011;45891;53.006;6.512;2022-10-19T13:49:19;10.70;;;1.48;;
60026;SDS011;45891;53.006;6.512;2022-10-19T13:52:09;10.82;;;1.40;;
60026;SDS011;45891;53.006;6.512;2022-10-19T14:00:18;9.27;;;1.90;;
60026;SDS011;45891;53.006;6.512;2022-10-19T14:05:33;10.40;;;1.90;;
60026;SDS011;45891;53.006;6.512;2022-10-19T14:10:40;11.38;;;2.13;;
60026;SDS011;45891;53.006;6.512;2022-10-19T14:13:10;9.95;;;2.30;;
60026;SDS011;45891;53.006;6.512;2022-10-19T14:15:39;10.07;;;2.35;;
60026;SDS011;45891;53.006;6.512;2022-10-19T14:21:31;10.77;;;2.37;;
60026;SDS011;45891;53.006;6.512;2022-10-19T14:24:00;10.07;;;2.63;;
60026;SDS011;45891;53.006;6.512;2022-10-19T14:26:26;13.55;;;2.65;;
60026;SDS011;45891;53.006;6.512;2022-10-19T14:28:56;9.00;;;2.35;;
60026;SDS011;45891;53.006;6.512;2022-10-19T14:31:24;10.35;;;2.30;;
60026;SDS011;45891;53.006;6.512;2022-10-19T14:34:01;11.80;;;2.38;;
60026;SDS011;45891;53.006;6.512;2022-10-19T14:36:34;10.37;;;2.80;;
60026;SDS011;45891;53.006;6.512;2022-10-19T14:39:02;10.60;;;2.70;;
60026;SDS011;45891;53.006;6.512;2022-10-19T14:41:32;9.23;;;2.22;;
60026;SDS011;45891;53.006;6.512;2022-10-19T14:44:01;10.82;;;2.65;;
60026;SDS011;45891;53.006;6.512;2022-10-19T14:46:45;11.93;;;2.90;;
60026;SDS011;45891;53.006;6.512;2022-10-19T14:49:12;10.63;;;2.92;;
60026;SDS011;45891;53.006;6.512;2022-10-19T14:51:58;9.57;;;3.10;;
60026;SDS011;45891;53.006;6.512;2022-10-19T14:54:34;10.70;;;3.10;;
60026;SDS011;45891;53.006;6.512;2022-10-19T14:57:14;13.30;;;3.50;;
60026;SDS011;45891;53.006;6.512;2022-10-19T14:59:53;11.60;;;3.58;;
60026;SDS011;45891;53.006;6.512;2022-10-19T15:02:45;12.18;;;3.50;;
60026;SDS011;45891;53.006;6.512;2022-10-19T15:05:30;11.38;;;3.53;;
60026;SDS011;45891;53.006;6.512;2022-10-19T15:08:08;12.60;;;3.50;;
60026;SDS011;45891;53.006;6.512;2022-10-19T15:10:43;14.90;;;4.00;;
60026;SDS011;45891;53.006;6.512;2022-10-19T15:13:21;11.57;;;3.78;;
60026;SDS011;45891;53.006;6.512;2022-10-19T15:15:50;12.90;;;4.10;;
60026;SDS011;45891;53.006;6.512;2022-10-19T15:18:17;12.23;;;4.47;;
60026;SDS011;45891;53.006;6.512;2022-10-19T15:20:46;12.88;;;4.22;;
60026;SDS011;45891;53.006;6.512;2022-10-19T15:23:33;15.38;;;4.13;;
60026;SDS011;45891;53.006;6.512;2022-10-19T15:26:14;11.55;;;4.32;;
60026;SDS011;45891;53.006;6.512;2022-10-19T15:28:41;12.68;;;4.93;;
60026;SDS011;45891;53.006;6.512;2022-10-19T15:31:18;10.93;;;4.50;;
60026;SDS011;45891;53.006;6.512;2022-10-19T15:33:50;13.98;;;4.63;;
60026;SDS011;45891;53.006;6.512;2022-10-19T15:36:20;11.77;;;4.30;;
60026;SDS011;45891;53.006;6.512;2022-10-19T15:38:48;11.45;;;4.50;;
60026;SDS011;45891;53.006;6.512;2022-10-19T15:41:33;10.60;;;4.45;;
60026;SDS011;45891;53.006;6.512;2022-10-19T15:44:02;11.18;;;4.50;;
60026;SDS011;45891;53.006;6.512;2022-10-19T15:52:17;12.40;;;5.03;;
60026;SDS011;45891;53.006;6.512;2022-10-19T15:54:55;12.85;;;5.00;;
60026;SDS011;45891;53.006;6.512;2022-10-19T16:00:00;13.93;;;5.40;;
60026;SDS011;45891;53.006;6.512;2022-10-19T16:02:46;12.98;;;5.20;;
60026;SDS011;45891;53.006;6.512;2022-10-19T16:05:12;15.02;;;5.65;;
60026;SDS011;45891;53.006;6.512;2022-10-19T16:07:39;10.73;;;4.93;;
60026;SDS011;45891;53.006;6.512;2022-10-19T16:10:06;14.35;;;5.00;;
60026;SDS011;45891;53.006;6.512;2022-10-19T16:12:37;14.27;;;5.05;;
60026;SDS011;45891;53.006;6.512;2022-10-19T16:15:04;15.25;;;5.00;;
60026;SDS011;45891;53.006;6.512;2022-10-19T16:17:30;13.00;;;4.60;;
60026;SDS011;45891;53.006;6.512;2022-10-19T16:19:57;11.77;;;4.47;;
60026;SDS011;45891;53.006;6.512;2022-10-19T16:22:29;11.78;;;4.58;;
60026;SDS011;45891;53.006;6.512;2022-10-19T16:24:55;14.05;;;4.97;;
60026;SDS011;45891;53.006;6.512;2022-10-19T16:27:21;18.00;;;4.97;;
60026;SDS011;45891;53.006;6.512;2022-10-19T16:29:47;10.45;;;4.97;;
60026;SDS011;45891;53.006;6.512;2022-10-19T16:32:14;12.55;;;4.97;;
60026;SDS011;45891;53.006;6.512;2022-10-19T16:34:40;11.93;;;5.18;;
60026;SDS011;45891;53.006;6.512;2022-10-19T16:37:06;12.70;;;5.35;;
60026;SDS011;45891;53.006;6.512;2022-10-19T16:39:32;12.93;;;5.20;;
60026;SDS011;45891;53.006;6.512;2022-10-19T16:41:58;13.63;;;4.95;;
60026;SDS011;45891;53.006;6.512;2022-10-19T16:44:24;12.65;;;4.60;;
60026;SDS011;45891;53.006;6.512;2022-10-19T16:46:50;11.70;;;4.75;;
60026;SDS011;45891;53.006;6.512;2022-10-19T16:49:17;10.45;;;4.35;;
60026;SDS011;45891;53.006;6.512;2022-10-19T16:51:43;11.55;;;4.00;;
60026;SDS011;45891;53.006;6.512;2022-10-19T16:54:09;10.85;;;4.30;;
60026;SDS011;45891;53.006;6.512;2022-10-19T16:56:41;13.27;;;3.55;;
60026;SDS011;45891;53.006;6.512;2022-10-19T16:59:10;12.55;;;3.38;;
60026;SDS011;45891;53.006;6.512;2022-10-19T17:01:38;13.02;;;3.20;;
60026;SDS011;45891;53.006;6.512;2022-10-19T17:04:04;14.13;;;3.17;;
60026;SDS011;45891;53.006;6.512;2022-10-19T17:06:31;10.90;;;3.10;;
60026;SDS011;45891;53.006;6.512;2022-10-19T17:08:58;11.23;;;2.80;;
60026;SDS011;45891;53.006;6.512;2022-10-19T17:11:26;10.73;;;2.90;;
60026;SDS011;45891;53.006;6.512;2022-10-19T17:13:54;8.77;;;2.70;;
60026;SDS011;45891;53.006;6.512;2022-10-19T17:16:22;12.55;;;2.50;;
60026;SDS011;45891;53.006;6.512;2022-10-19T17:18:52;11.25;;;2.53;;
60026;SDS011;45891;53.006;6.512;2022-10-19T17:21:21;10.65;;;2.90;;
60026;SDS011;45891;53.006;6.512;2022-10-19T17:23:59;11.68;;;2.80;;
60026;SDS011;45891;53.006;6.512;2022-10-19T17:26:28;13.32;;;3.10;;
60026;SDS011;45891;53.006;6.512;2022-10-19T17:28:56;11.88;;;3.20;;
60026;SDS011;45891;53.006;6.512;2022-10-19T17:31:23;11.63;;;2.88;;
60026;SDS011;45891;53.006;6.512;2022-10-19T17:33:50;11.35;;;3.20;;
60026;SDS011;45891;53.006;6.512;2022-10-19T17:36:18;11.75;;;3.30;;
60026;SDS011;45891;53.006;6.512;2022-10-19T17:38:46;13.95;;;2.72;;
60026;SDS011;45891;53.006;6.512;2022-10-19T17:41:14;11.50;;;2.80;;
60026;SDS011;45891;53.006;6.512;2022-10-19T17:43:42;9.98;;;2.78;;
60026;SDS011;45891;53.006;6.512;2022-10-19T17:46:10;15.02;;;3.03;;